Time;durP1;ratioP1;P1;durP2;ratioP2;P2;SDS_P1;SDS_P2;PMS_P1;PMS_P2;Temp;Humidity;BMP_temperature;BMP_pressure;BME280_temperature;BME280_humidity;BME280_pressure;Samples;Min_cycle;Max_cycle;Signal;HPM_P1;HPM_P2
2022/08/14 00:02:15;;;;;;;1.03;1.03;;;23.00;99.90;;;;;;5036969;28;20193;-81
2022/08/14 00:04:40;;;;;;;0.70;0.60;;;22.90;99.90;;;;;;5037860;28;20221;-81
2022/08/14 00:07:06;;;;;;;0.93;0.63;;;22.90;99.90;;;;;;5035093;28;20788;-80
2022/08/14 00:09:32;;;;;;;0.47;0.47;;;22.90;99.90;;;;;;5035364;28;20182;-81
2022/08/14 00:11:57;;;;;;;0.83;0.70;;;22.90;99.90;;;;;;5037325;28;20638;-81
2022/08/14 00:14:26;;;;;;;1.73;0.60;;;22.90;99.90;;;;;;5038247;28;20569;-81
2022/08/14 00:16:51;;;;;;;1.30;0.97;;;22.80;99.90;;;;;;5027564;28;20709;-81
2022/08/14 00:19:17;;;;;;;0.93;0.33;;;22.80;99.90;;;;;;5034623;28;20277;-81
2022/08/14 00:21:43;;;;;;;0.57;0.57;;;22.80;99.90;;;;;;5027459;28;21924;-80
2022/08/14 00:24:08;;;;;;;0.80;0.80;;;22.70;99.90;;;;;;5026607;28;20286;-81
2022/08/14 00:26:34;;;;;;;0.83;0.67;;;22.70;99.90;;;;;;5026196;28;20217;-81
2022/08/14 00:28:59;;;;;;;0.67;0.67;;;22.70;99.90;;;;;;5024462;28;20198;-81
2022/08/14 00:31:26;;;;;;;0.60;0.60;;;22.70;99.90;;;;;;5024129;28;20210;-80
2022/08/14 00:33:52;;;;;;;1.20;0.43;;;22.60;99.90;;;;;;5027827;28;20175;-81
2022/08/14 00:36:18;;;;;;;0.50;0.50;;;22.60;99.90;;;;;;5021434;28;20177;-81
2022/08/14 00:38:44;;;;;;;0.73;0.73;;;22.50;99.90;;;;;;5020325;28;20187;-80
2022/08/14 00:41:09;;;;;;;0.60;0.60;;;22.50;99.90;;;;;;5026687;28;20175;-81
2022/08/14 00:43:36;;;;;;;0.80;0.80;;;22.50;99.90;;;;;;5030295;28;20180;-80
2022/08/14 00:46:05;;;;;;;1.20;1.10;;;22.50;99.90;;;;;;5048936;28;20568;-80
2022/08/14 00:48:31;;;;;;;0.93;0.63;;;22.50;99.90;;;;;;5042492;28;20292;-81
2022/08/14 00:50:56;;;;;;;0.77;0.77;;;22.40;99.90;;;;;;5041550;28;20600;-81
2022/08/14 00:53:24;;;;;;;0.70;0.67;;;22.40;99.90;;;;;;5040567;28;20688;-81
2022/08/14 00:55:50;;;;;;;0.57;0.57;;;22.50;99.90;;;;;;5039393;28;20697;-81
2022/08/14 00:58:31;;;;;;;1.10;0.90;;;22.60;99.90;;;;;;5029757;28;20175;-81
2022/08/14 01:01:08;;;;;;;0.60;0.60;;;22.60;99.90;;;;;;5041086;28;20179;-80
2022/08/14 01:03:36;;;;;;;0.53;0.53;;;22.60;99.90;;;;;;5029200;28;20544;-81
2022/08/14 01:06:02;;;;;;;0.73;0.70;;;22.60;99.90;;;;;;5028836;28;20206;-81
2022/08/14 01:08:29;;;;;;;0.67;0.67;;;22.50;99.90;;;;;;5024292;28;20186;-81
2022/08/14 01:10:57;;;;;;;3.50;0.70;;;22.40;99.90;;;;;;5034564;28;20202;-80
2022/08/14 01:13:35;;;;;;;3.37;1.10;;;22.40;99.90;;;;;;5033848;28;20254;-80
2022/08/14 01:16:04;;;;;;;3.47;1.27;;;22.30;99.90;;;;;;5030433;28;20694;-80
2022/08/14 01:21:20;;;;;;;0.67;0.67;;;22.30;99.90;;;;;;5038886;28;20686;-81
2022/08/14 01:23:49;;;;;;;1.10;1.00;;;22.30;99.90;;;;;;5037558;28;20187;-80
2022/08/14 01:26:19;;;;;;;0.73;0.70;;;22.40;99.90;;;;;;5030791;28;20259;-81
2022/08/14 01:28:47;;;;;;;1.00;0.50;;;22.40;99.90;;;;;;5023698;28;21721;-80
2022/08/14 01:31:15;;;;;;;0.97;0.83;;;22.40;99.90;;;;;;5036164;28;20190;-80
2022/08/14 01:33:45;;;;;;;1.37;1.00;;;22.40;99.90;;;;;;5038832;28;20202;-80
2022/08/14 01:36:12;;;;;;;0.73;0.60;;;22.30;99.90;;;;;;5027663;28;20229;-81
2022/08/14 01:38:40;;;;;;;0.93;0.90;;;22.30;99.90;;;;;;5041190;28;20185;-80
2022/08/14 01:41:11;;;;;;;0.33;0.33;;;22.30;99.90;;;;;;5039020;28;20279;-80
2022/08/14 01:43:47;;;;;;;1.30;0.63;;;22.20;99.90;;;;;;5028767;28;20182;-81
2022/08/14 01:46:19;;;;;;;0.73;0.73;;;22.10;99.90;;;;;;5028870;28;20206;-81
2022/08/14 01:48:45;;;;;;;0.93;0.93;;;22.10;99.90;;;;;;5030984;28;20202;-81
2022/08/14 01:51:12;;;;;;;1.13;1.13;;;21.90;99.90;;;;;;5030336;28;20264;-80
2022/08/14 01:53:44;;;;;;;0.90;0.57;;;21.90;99.90;;;;;;5040572;28;20202;-81
2022/08/14 01:56:10;;;;;;;0.60;0.60;;;21.80;99.90;;;;;;5041039;28;20225;-81
2022/08/14 01:58:36;;;;;;;1.27;0.50;;;21.80;99.90;;;;;;5031382;28;20711;-80
2022/08/14 02:01:04;;;;;;;0.50;0.47;;;21.80;99.90;;;;;;5043289;28;20192;-81
2022/08/14 02:03:34;;;;;;;3.90;1.23;;;21.70;99.90;;;;;;5039436;28;20268;-81
2022/08/14 02:06:01;;;;;;;0.87;0.87;;;21.60;99.90;;;;;;5031700;28;20203;-81
2022/08/14 02:08:29;;;;;;;0.73;0.73;;;21.60;99.90;;;;;;5027571;28;20190;-81
2022/08/14 02:13:46;;;;;;;0.77;0.70;;;21.40;99.90;;;;;;5030030;28;20221;-80
2022/08/14 02:16:15;;;;;;;1.10;1.00;;;21.40;99.90;;;;;;5031294;28;20209;-81
2022/08/14 02:18:41;;;;;;;1.20;0.70;;;21.40;99.90;;;;;;5035901;28;20208;-80
2022/08/14 02:21:07;;;;;;;0.77;0.77;;;21.40;99.90;;;;;;5030593;28;20193;-81
2022/08/14 02:23:32;;;;;;;0.80;0.80;;;21.40;99.90;;;;;;5035671;28;20540;-81
2022/08/14 02:26:12;;;;;;;0.67;0.67;;;21.40;99.90;;;;;;5038911;28;20230;-81
2022/08/14 02:28:38;;;;;;;1.47;0.83;;;21.40;99.90;;;;;;5029511;28;20675;-80
2022/08/14 02:31:04;;;;;;;1.33;1.23;;;21.50;99.90;;;;;;5032687;28;20281;-81
2022/08/14 02:33:30;;;;;;;2.97;1.17;;;21.60;99.90;;;;;;5033127;28;20248;-81
2022/08/14 02:35:55;;;;;;;0.93;0.87;;;21.70;99.90;;;;;;5021460;28;20233;-81
2022/08/14 02:38:21;;;;;;;0.37;0.37;;;21.70;99.90;;;;;;5030803;28;20187;-80
2022/08/14 02:40:47;;;;;;;1.50;0.73;;;21.80;99.90;;;;;;5034686;28;20205;-81
2022/08/14 02:43:13;;;;;;;0.83;0.60;;;21.80;99.90;;;;;;5037796;28;20182;-80
2022/08/14 02:45:39;;;;;;;0.80;0.73;;;21.90;99.90;;;;;;5035480;28;20217;-81
2022/08/14 02:48:06;;;;;;;0.77;0.77;;;22.00;99.90;;;;;;5036647;28;20199;-81
2022/08/14 02:50:36;;;;;;;1.17;0.97;;;21.90;99.90;;;;;;5029250;28;20576;-81
2022/08/14 02:53:02;;;;;;;0.67;0.67;;;21.80;99.90;;;;;;5037936;28;20253;-81
2022/08/14 02:55:31;;;;;;;1.13;0.53;;;21.70;99.90;;;;;;5039312;28;20286;-81
2022/08/14 02:57:57;;;;;;;1.00;0.80;;;21.70;99.90;;;;;;5031566;28;20189;-81
2022/08/14 03:00:23;;;;;;;0.87;0.73;;;21.40;99.90;;;;;;5030356;28;20175;-81
2022/08/14 03:02:49;;;;;;;3.13;1.13;;;21.20;99.90;;;;;;5034998;28;20217;-81
2022/08/14 03:05:16;;;;;;;0.37;0.37;;;21.30;99.90;;;;;;5032150;28;20205;-81
2022/08/14 03:07:42;;;;;;;2.13;0.57;;;21.40;99.90;;;;;;5028028;28;20524;-81
2022/08/14 03:10:09;;;;;;;0.60;0.50;;;21.50;99.90;;;;;;5031529;28;20644;-81
2022/08/14 03:12:34;;;;;;;1.07;0.97;;;21.60;99.90;;;;;;5031579;28;20214;-81
2022/08/14 03:15:12;;;;;;;0.83;0.70;;;21.70;99.90;;;;;;5040356;28;20206;-81
2022/08/14 03:17:38;;;;;;;1.17;0.80;;;21.70;99.90;;;;;;5034538;28;20182;-81
2022/08/14 03:20:05;;;;;;;0.67;0.67;;;21.70;99.90;;;;;;5030986;28;20740;-82
2022/08/14 03:22:32;;;;;;;0.60;0.60;;;21.40;99.90;;;;;;5028327;28;20687;-81
2022/08/14 03:24:59;;;;;;;1.13;0.70;;;21.30;99.90;;;;;;5030432;28;20620;-81
2022/08/14 03:27:30;;;;;;;0.80;0.80;;;21.30;99.90;;;;;;5032799;28;20223;-81
2022/08/14 03:29:55;;;;;;;0.73;0.73;;;21.10;99.90;;;;;;5033197;28;20182;-80
2022/08/14 03:32:21;;;;;;;1.13;0.73;;;20.90;99.90;;;;;;5040329;28;20194;-81
2022/08/14 03:34:47;;;;;;;1.20;1.10;;;20.80;99.90;;;;;;5032573;28;20297;-81
2022/08/14 03:37:12;;;;;;;0.60;0.60;;;20.70;99.90;;;;;;5021312;28;21846;-81
2022/08/14 03:39:38;;;;;;;1.33;1.23;;;20.60;99.90;;;;;;5025940;28;20652;-81
2022/08/14 03:42:04;;;;;;;2.13;0.97;;;20.60;99.90;;;;;;5032662;28;20215;-82
2022/08/14 03:44:32;;;;;;;0.60;0.60;;;20.60;99.90;;;;;;5033222;28;20210;-79
2022/08/14 03:46:58;;;;;;;1.83;0.93;;;20.50;99.90;;;;;;5031814;28;20239;-80
2022/08/14 03:49:24;;;;;;;1.07;1.00;;;20.50;99.90;;;;;;5030343;28;20190;-80
2022/08/14 03:51:49;;;;;;;2.17;0.77;;;20.50;99.90;;;;;;5032711;28;20707;-79
2022/08/14 03:54:15;;;;;;;1.97;0.90;;;20.50;99.90;;;;;;5037667;28;20202;-80
2022/08/14 03:56:43;;;;;;;0.73;0.70;;;20.50;99.90;;;;;;5033837;28;20174;-80
2022/08/14 03:59:12;;;;;;;0.47;0.47;;;20.60;99.90;;;;;;5025073;28;20172;-80
2022/08/14 04:01:39;;;;;;;0.67;0.67;;;20.70;99.90;;;;;;5038367;28;20220;-79
2022/08/14 04:04:06;;;;;;;0.80;0.70;;;20.80;99.90;;;;;;5025793;28;20814;-79
2022/08/14 04:06:34;;;;;;;0.80;0.70;;;20.70;99.90;;;;;;5037396;28;20651;-80
2022/08/14 04:08:59;;;;;;;1.07;1.00;;;20.70;99.90;;;;;;5029903;28;20316;-80
2022/08/14 04:11:26;;;;;;;1.83;1.73;;;20.70;99.90;;;;;;5033656;28;20276;-80
2022/08/14 04:13:52;;;;;;;1.13;1.13;;;20.70;99.90;;;;;;5029695;28;20346;-80
2022/08/14 04:16:20;;;;;;;1.80;1.03;;;20.70;99.90;;;;;;5029466;28;20319;-80
2022/08/14 04:18:48;;;;;;;1.10;0.70;;;20.70;99.90;;;;;;5027169;28;20339;-80
2022/08/14 04:21:15;;;;;;;1.10;1.00;;;20.60;99.90;;;;;;5029920;28;20182;-80
2022/08/14 04:23:42;;;;;;;0.87;0.87;;;20.50;99.90;;;;;;5033324;28;20766;-80
2022/08/14 04:26:11;;;;;;;0.87;0.87;;;20.60;99.90;;;;;;5032223;28;20202;-80
2022/08/14 04:28:39;;;;;;;0.73;0.73;;;20.50;99.90;;;;;;5033687;28;20193;-80
2022/08/14 04:31:05;;;;;;;1.40;1.30;;;20.40;99.90;;;;;;5030349;28;20957;-80
2022/08/14 04:33:31;;;;;;;0.70;0.70;;;20.50;99.90;;;;;;5032916;28;20594;-80
2022/08/14 04:35:57;;;;;;;1.00;0.97;;;20.60;99.90;;;;;;5036358;28;20298;-80
2022/08/14 04:44:12;;;;;;;1.33;1.23;;;21.10;99.90;;;;;;5009921;28;20831;-80
2022/08/14 04:46:37;;;;;;;0.57;0.57;;;20.80;99.90;;;;;;5010331;28;20178;-79
2022/08/14 04:49:04;;;;;;;0.97;0.63;;;20.70;99.90;;;;;;5022143;28;20202;-80
2022/08/14 04:51:31;;;;;;;1.10;0.97;;;20.70;99.90;;;;;;5034552;28;20175;-79
2022/08/14 04:53:59;;;;;;;1.50;1.40;;;20.80;99.90;;;;;;5032656;28;20174;-80
2022/08/14 04:56:26;;;;;;;1.27;1.10;;;20.70;99.90;;;;;;5035097;28;20187;-80
2022/08/14 04:59:00;;;;;;;0.70;0.70;;;20.80;99.90;;;;;;5039361;28;20191;-80
2022/08/14 05:01:26;;;;;;;0.70;0.70;;;20.80;99.90;;;;;;5046035;28;20187;-80
2022/08/14 05:03:53;;;;;;;1.37;1.23;;;20.70;99.90;;;;;;5033198;28;20235;-80
2022/08/14 05:06:20;;;;;;;1.30;1.17;;;20.70;99.90;;;;;;5035099;28;20232;-80
2022/08/14 05:08:45;;;;;;;1.27;1.10;;;20.80;99.90;;;;;;5038053;28;20179;-79
2022/08/14 05:11:11;;;;;;;0.90;0.87;;;20.90;99.90;;;;;;5038293;28;20183;-80
2022/08/14 05:13:37;;;;;;;1.07;1.07;;;21.00;99.90;;;;;;5033825;28;20644;-79
2022/08/14 05:16:04;;;;;;;1.47;1.17;;;21.10;99.90;;;;;;5035194;28;20203;-79
2022/08/14 05:18:33;;;;;;;1.23;1.13;;;21.10;99.90;;;;;;5030804;28;20562;-80
2022/08/14 05:21:01;;;;;;;1.00;1.00;;;21.10;99.90;;;;;;5028767;28;20270;-80
2022/08/14 05:23:30;;;;;;;0.97;0.97;;;21.20;99.90;;;;;;5031588;28;20186;-79
2022/08/14 05:26:12;;;;;;;1.60;1.50;;;21.30;99.90;;;;;;5032882;28;20209;-79
2022/08/14 05:28:41;;;;;;;1.47;1.30;;;21.40;99.90;;;;;;5028537;28;20540;-79
2022/08/14 05:31:06;;;;;;;1.07;0.97;;;21.40;99.90;;;;;;5041292;28;20324;-79
2022/08/14 05:33:34;;;;;;;1.27;1.23;;;21.50;99.90;;;;;;5045706;28;20209;-79
2022/08/14 05:36:05;;;;;;;0.97;0.97;;;21.60;99.90;;;;;;5031780;28;20861;-79
2022/08/14 05:38:34;;;;;;;0.90;0.90;;;21.70;99.90;;;;;;5040824;28;20181;-79
2022/08/14 05:41:08;;;;;;;1.80;1.57;;;21.70;99.90;;;;;;5040413;28;20184;-78
2022/08/14 05:43:34;;;;;;;1.33;1.23;;;21.70;99.90;;;;;;5042613;28;20189;-79
2022/08/14 05:46:00;;;;;;;2.00;1.17;;;21.80;99.90;;;;;;5044894;28;20193;-79
2022/08/14 05:48:27;;;;;;;1.47;1.37;;;21.90;99.90;;;;;;5045565;28;20663;-79
2022/08/14 05:50:53;;;;;;;1.07;0.97;;;21.90;99.90;;;;;;5041022;28;20191;-79
2022/08/14 05:53:23;;;;;;;1.33;1.23;;;22.00;99.90;;;;;;5041679;28;20206;-79
2022/08/14 05:55:48;;;;;;;1.13;1.07;;;22.20;99.90;;;;;;5048759;28;20193;-79
2022/08/14 05:58:14;;;;;;;1.57;1.40;;;22.30;99.90;;;;;;5042022;28;20174;-79
2022/08/14 06:00:42;;;;;;;1.53;1.43;;;22.40;99.90;;;;;;5043874;28;20197;-79
2022/08/14 06:03:15;;;;;;;1.57;1.03;;;22.50;99.90;;;;;;5032326;28;20230;-79
2022/08/14 06:05:41;;;;;;;1.30;1.20;;;22.50;99.90;;;;;;5029273;28;20209;-79
2022/08/14 06:08:20;;;;;;;5.00;1.47;;;22.60;99.90;;;;;;5028502;28;20179;-79
2022/08/14 06:10:46;;;;;;;1.10;1.00;;;22.70;99.90;;;;;;5031954;28;20258;-79
2022/08/14 06:13:12;;;;;;;2.13;1.50;;;22.90;99.90;;;;;;5028727;28;20214;-79
2022/08/14 06:15:38;;;;;;;1.07;1.07;;;23.00;99.90;;;;;;5032100;28;20200;-80
2022/08/14 06:18:04;;;;;;;1.00;1.00;;;22.90;99.90;;;;;;5026217;28;20269;-80
2022/08/14 06:20:30;;;;;;;1.97;1.43;;;23.00;99.90;;;;;;5031059;28;20556;-79
2022/08/14 06:22:56;;;;;;;3.43;1.43;;;23.00;99.90;;;;;;5032552;28;20670;-80
2022/08/14 06:25:22;;;;;;;2.20;1.20;;;23.30;99.90;;;;;;5035313;28;20301;-79
2022/08/14 06:27:48;;;;;;;1.37;1.13;;;23.40;99.90;;;;;;5033161;28;20174;-79
2022/08/14 06:30:16;;;;;;;1.70;1.60;;;23.30;99.90;;;;;;5031347;28;20187;-79
2022/08/14 06:32:43;;;;;;;5.83;1.70;;;23.40;99.90;;;;;;5028297;28;20214;-79
2022/08/14 06:35:09;;;;;;;1.10;0.93;;;23.30;99.90;;;;;;5032508;28;20642;-79
2022/08/14 06:37:48;;;;;;;5.53;1.33;;;23.30;99.90;;;;;;5029387;28;20237;-79
2022/08/14 06:40:18;;;;;;;0.83;0.83;;;23.50;99.90;;;;;;5029856;28;20185;-79
2022/08/14 06:42:45;;;;;;;2.40;1.80;;;23.70;99.90;;;;;;5033229;28;20186;-79
2022/08/14 06:45:11;;;;;;;0.93;0.93;;;23.80;99.90;;;;;;5033940;28;20210;-80
2022/08/14 06:47:39;;;;;;;1.50;1.40;;;23.90;99.90;;;;;;5031669;28;20191;-80
2022/08/14 06:50:10;;;;;;;1.00;1.00;;;24.10;99.90;;;;;;5031736;28;20207;-79
2022/08/14 06:52:37;;;;;;;1.43;1.17;;;24.10;99.90;;;;;;5039059;28;20205;-80
2022/08/14 06:55:05;;;;;;;1.23;1.10;;;24.20;99.90;;;;;;5036712;28;20217;-80
2022/08/14 06:57:37;;;;;;;1.63;1.53;;;24.20;99.90;;;;;;5035740;28;20217;-80
2022/08/14 07:00:12;;;;;;;2.73;1.63;;;24.50;99.90;;;;;;5036216;28;20194;-80
2022/08/14 07:05:45;;;;;;;1.10;1.00;;;24.30;99.90;;;;;;5029811;28;20302;-80
2022/08/14 07:08:16;;;;;;;1.00;1.00;;;24.30;99.90;;;;;;5036752;28;20185;-80
2022/08/14 07:10:44;;;;;;;1.90;1.80;;;24.10;99.90;;;;;;5031017;28;20206;-79
2022/08/14 07:13:12;;;;;;;1.43;1.33;;;24.20;99.90;;;;;;5031765;28;20256;-79
2022/08/14 07:15:38;;;;;;;1.43;1.03;;;24.30;99.90;;;;;;5030120;28;20733;-80
2022/08/14 07:18:05;;;;;;;3.63;1.20;;;24.40;99.90;;;;;;5031529;28;20273;-79
2022/08/14 07:20:31;;;;;;;4.20;2.17;;;24.40;99.90;;;;;;5031205;28;20183;-80
2022/08/14 07:22:59;;;;;;;1.87;1.17;;;24.40;99.90;;;;;;5032273;28;20190;-82
2022/08/14 07:25:25;;;;;;;1.63;1.53;;;24.80;99.90;;;;;;5030342;28;20225;-80
2022/08/14 07:27:51;;;;;;;1.40;1.07;;;24.60;99.90;;;;;;5028874;28;20186;-80
2022/08/14 07:30:17;;;;;;;2.10;1.73;;;24.90;99.90;;;;;;5038904;28;20197;-80
2022/08/14 07:32:42;;;;;;;1.27;1.17;;;25.00;99.90;;;;;;5040973;28;20208;-80
2022/08/14 07:35:08;;;;;;;2.63;1.67;;;24.90;99.90;;;;;;5047627;28;20238;-80
2022/08/14 07:37:34;;;;;;;2.60;1.90;;;24.80;99.90;;;;;;5031406;28;20186;-80
2022/08/14 07:40:01;;;;;;;1.47;1.17;;;24.60;99.90;;;;;;5040538;28;20182;-79
2022/08/14 07:42:27;;;;;;;2.17;1.30;;;24.70;99.90;;;;;;5038275;28;20191;-80
2022/08/14 07:44:53;;;;;;;1.60;1.50;;;24.90;99.90;;;;;;5037047;28;20202;-81
2022/08/14 07:47:19;;;;;;;2.47;1.43;;;25.10;99.90;;;;;;5039328;28;20194;-81
2022/08/14 07:50:01;;;;;;;1.63;1.50;;;25.50;99.90;;;;;;5042303;28;20198;-81
2022/08/14 07:52:27;;;;;;;1.23;1.13;;;25.50;99.90;;;;;;5041354;28;20238;-81
2022/08/14 07:54:55;;;;;;;1.20;1.10;;;25.60;99.90;;;;;;5033051;28;20224;-80
2022/08/14 07:57:21;;;;;;;1.60;1.23;;;26.10;99.90;;;;;;5043910;28;20200;-80
2022/08/14 07:59:47;;;;;;;3.70;1.30;;;26.20;99.90;;;;;;5041706;28;20189;-81
2022/08/14 08:02:15;;;;;;;1.73;1.53;;;26.50;99.90;;;;;;5040029;28;20185;-81
2022/08/14 08:04:44;;;;;;;1.30;1.20;;;26.20;99.90;;;;;;5041265;28;20849;-81
2022/08/14 08:07:10;;;;;;;1.37;1.27;;;25.70;99.90;;;;;;5044008;28;20264;-81
2022/08/14 08:09:43;;;;;;;2.87;1.30;;;25.80;99.90;;;;;;5030068;28;20225;-80
2022/08/14 08:12:10;;;;;;;1.10;1.00;;;25.80;99.90;;;;;;5021215;28;20260;-81
2022/08/14 08:14:37;;;;;;;1.53;1.23;;;26.30;99.90;;;;;;5024593;28;20213;-81
2022/08/14 08:17:03;;;;;;;1.27;1.17;;;26.10;99.90;;;;;;5023920;28;20197;-81
2022/08/14 08:19:30;;;;;;;1.57;1.23;;;26.30;99.90;;;;;;5033311;28;20193;-81
2022/08/14 08:21:57;;;;;;;1.27;1.10;;;26.60;99.90;;;;;;5034660;28;20224;-81
2022/08/14 08:24:22;;;;;;;2.07;1.50;;;26.40;99.90;;;;;;5029541;28;20745;-81
2022/08/14 08:26:48;;;;;;;1.60;1.37;;;26.30;99.90;;;;;;5034432;28;20194;-80
2022/08/14 08:29:23;;;;;;;0.60;0.60;;;26.80;99.90;;;;;;5023029;28;20806;-81
2022/08/14 08:31:50;;;;;;;1.47;1.37;;;27.20;99.90;;;;;;5029337;28;20193;-81
2022/08/14 08:34:19;;;;;;;1.83;1.67;;;27.00;99.90;;;;;;5034762;28;20205;-81
2022/08/14 08:36:46;;;;;;;2.03;1.75;;;26.80;99.90;;;;;;5031617;28;20555;-81
2022/08/14 08:39:11;;;;;;;0.87;0.80;;;26.90;99.90;;;;;;5030605;28;20187;-81
2022/08/14 08:41:46;;;;;;;0.65;0.65;;;27.10;99.90;;;;;;5028315;28;20194;-81
2022/08/14 08:44:13;;;;;;;1.67;1.23;;;27.50;99.90;;;;;;5032318;28;20189;-80
2022/08/14 08:46:39;;;;;;;1.63;1.23;;;27.60;99.90;;;;;;5034837;28;20186;-81
2022/08/14 08:49:05;;;;;;;1.48;1.25;;;27.50;99.90;;;;;;5034719;28;20655;-80
2022/08/14 08:51:38;;;;;;;1.83;1.45;;;27.70;99.90;;;;;;5028200;28;20191;-81
2022/08/14 08:54:06;;;;;;;1.50;1.40;;;28.20;99.90;;;;;;5028411;28;20572;-81
2022/08/14 08:56:39;;;;;;;1.35;1.25;;;28.40;99.90;;;;;;5030759;28;20885;-81
2022/08/14 08:59:35;;;;;;;1.20;1.10;;;28.40;99.90;;;;;;5024874;28;20297;-81
2022/08/14 09:02:08;;;;;;;0.68;0.68;;;28.00;99.90;;;;;;5028349;28;20190;-81
2022/08/14 09:04:38;;;;;;;1.70;1.42;;;28.10;99.90;;;;;;5028085;28;20212;-81
2022/08/14 09:07:05;;;;;;;1.25;1.02;;;28.40;99.90;;;;;;5028315;28;20197;-80
2022/08/14 09:09:31;;;;;;;1.42;1.17;;;28.60;99.90;;;;;;5031850;28;20278;-81
2022/08/14 09:11:59;;;;;;;1.90;1.45;;;28.00;99.90;;;;;;5028076;28;20288;-81
2022/08/14 09:14:30;;;;;;;1.75;1.65;;;27.80;99.90;;;;;;5024741;28;20231;-81
2022/08/14 09:16:58;;;;;;;1.50;1.40;;;28.20;99.90;;;;;;5029756;28;20799;-81
2022/08/14 09:19:24;;;;;;;2.78;1.35;;;27.70;99.90;;;;;;5030650;28;20189;-81
2022/08/14 09:21:50;;;;;;;1.52;1.08;;;27.50;99.90;;;;;;5019511;28;20179;-80
2022/08/14 09:24:16;;;;;;;1.50;1.27;;;27.90;99.90;;;;;;5018887;28;20256;-81
2022/08/14 09:26:43;;;;;;;1.20;1.10;;;27.80;99.90;;;;;;5032072;28;20191;-81
2022/08/14 09:29:10;;;;;;;1.73;1.30;;;28.00;99.90;;;;;;5025352;28;20216;-81
2022/08/14 09:31:38;;;;;;;1.65;1.55;;;27.70;99.90;;;;;;5028276;28;20179;-81
2022/08/14 09:34:35;;;;;;;1.98;1.77;;;28.30;99.90;;;;;;5025605;28;20194;-81
2022/08/14 09:37:16;;;;;;;2.03;1.40;;;27.80;99.90;;;;;;5029775;28;20216;-81
2022/08/14 09:40:04;;;;;;;1.90;1.40;;;28.20;99.90;;;;;;5033617;28;20179;-80
2022/08/14 09:42:53;;;;;;;1.48;1.35;;;29.00;99.90;;;;;;5033934;28;20289;-80
2022/08/14 09:45:27;;;;;;;1.77;1.65;;;29.10;99.90;;;;;;5035321;28;20214;-81
2022/08/14 09:47:55;;;;;;;1.83;0.93;;;28.60;99.90;;;;;;5028944;28;20554;-82
2022/08/14 09:50:28;;;;;;;1.20;1.10;;;29.00;99.90;;;;;;5034300;28;20338;-79
2022/08/14 09:52:55;;;;;;;1.48;1.15;;;29.30;99.90;;;;;;5033433;28;20202;-80
2022/08/14 09:55:23;;;;;;;1.52;1.42;;;29.60;99.90;;;;;;5033169;28;20207;-81
2022/08/14 09:57:50;;;;;;;0.77;0.75;;;28.90;99.90;;;;;;5033132;28;20240;-81
2022/08/14 10:00:18;;;;;;;1.95;1.73;;;28.80;99.90;;;;;;5023672;28;20186;-80
2022/08/14 10:03:01;;;;;;;1.27;1.17;;;29.20;99.90;;;;;;5031182;28;20182;-81
2022/08/14 10:05:29;;;;;;;1.05;1.02;;;29.50;99.90;;;;;;5026534;28;20202;-80
2022/08/14 10:07:56;;;;;;;2.15;2.00;;;29.20;99.90;;;;;;5029759;28;20244;-80
2022/08/14 10:10:36;;;;;;;1.40;1.30;;;29.60;99.90;;;;;;5033069;28;20191;-81
2022/08/14 10:13:04;;;;;;;1.25;1.15;;;29.20;99.90;;;;;;5030921;28;20210;-81
2022/08/14 10:15:36;;;;;;;1.50;1.38;;;29.50;99.90;;;;;;5031124;28;20210;-80
2022/08/14 10:18:09;;;;;;;1.13;1.02;;;30.10;99.90;;;;;;5037839;28;20196;-80
2022/08/14 10:20:40;;;;;;;3.60;1.95;;;30.10;99.90;;;;;;5027993;28;20236;-80
2022/08/14 10:23:14;;;;;;;1.45;1.08;;;30.10;99.90;;;;;;5031277;28;20217;-81
2022/08/14 10:25:49;;;;;;;3.15;2.25;;;29.90;99.90;;;;;;5028708;28;20284;-81
2022/08/14 10:28:15;;;;;;;1.52;1.10;;;29.60;99.90;;;;;;5029422;28;20280;-80
2022/08/14 10:30:46;;;;;;;2.58;0.95;;;29.20;99.90;;;;;;5032037;28;20194;-81
2022/08/14 10:33:28;;;;;;;2.30;1.50;;;29.50;99.90;;;;;;5032492;28;20210;-80
2022/08/14 10:35:55;;;;;;;2.10;1.55;;;29.70;99.90;;;;;;5028044;28;20213;-80
2022/08/14 10:38:31;;;;;;;1.60;1.38;;;30.10;99.90;;;;;;5030237;28;20209;-80
2022/08/14 10:41:12;;;;;;;1.67;1.58;;;30.10;99.90;;;;;;5031879;28;20205;-80
2022/08/14 10:43:40;;;;;;;1.17;1.08;;;30.50;99.90;;;;;;5034112;28;20186;-80
2022/08/14 10:46:15;;;;;;;1.98;1.55;;;30.90;99.90;;;;;;5032582;28;20207;-81
2022/08/14 10:48:54;;;;;;;0.70;0.70;;;31.10;99.90;;;;;;5027922;28;20221;-81
2022/08/14 10:51:28;;;;;;;1.92;1.55;;;31.20;99.90;;;;;;5026277;28;20197;-81
2022/08/14 10:53:54;;;;;;;0.82;0.82;;;31.40;99.90;;;;;;5032036;28;20249;-81
2022/08/14 10:56:30;;;;;;;1.25;1.15;;;30.90;99.90;;;;;;5032455;28;20202;-80
2022/08/14 10:59:07;;;;;;;1.10;0.98;;;31.40;99.90;;;;;;5026651;28;20234;-80
2022/08/14 11:01:36;;;;;;;1.85;1.73;;;31.80;99.90;;;;;;5031568;28;20228;-80
2022/08/14 11:04:02;;;;;;;1.08;1.08;;;32.00;99.90;;;;;;5031819;28;20186;-80
2022/08/14 11:06:29;;;;;;;1.55;1.45;;;32.10;99.90;;;;;;5031530;28;20676;-80
2022/08/14 11:08:55;;;;;;;2.03;1.08;;;32.10;99.90;;;;;;5030510;28;20574;-80
2022/08/14 11:11:24;;;;;;;0.60;0.60;;;31.80;99.90;;;;;;5024916;28;20218;-80
2022/08/14 11:13:54;;;;;;;0.60;0.60;;;32.20;99.90;;;;;;5027501;28;20217;-80
2022/08/14 11:16:21;;;;;;;0.90;0.80;;;32.40;99.90;;;;;;5034126;28;20289;-80
2022/08/14 11:18:50;;;;;;;1.42;1.35;;;32.00;99.90;;;;;;5038361;28;20185;-81
2022/08/14 11:21:19;;;;;;;1.42;1.33;;;31.00;99.90;;;;;;5033164;28;20182;-81
2022/08/14 11:23:48;;;;;;;0.93;0.88;;;31.50;99.90;;;;;;5032608;28;20178;-81
2022/08/14 11:26:17;;;;;;;1.42;1.33;;;31.60;99.90;;;;;;5037124;28;20209;-81
2022/08/14 11:28:48;;;;;;;1.75;1.40;;;31.30;99.90;;;;;;5033649;28;20204;-81
2022/08/14 11:31:16;;;;;;;1.25;1.15;;;30.50;99.90;;;;;;5028357;28;20190;-81
2022/08/14 11:33:42;;;;;;;1.63;1.52;;;31.00;99.90;;;;;;5030289;28;20660;-81
2022/08/14 11:36:10;;;;;;;1.40;1.30;;;30.80;99.90;;;;;;5028286;28;20206;-81
2022/08/14 11:38:41;;;;;;;0.70;0.70;;;31.50;99.90;;;;;;5031431;28;20186;-81
2022/08/14 11:41:08;;;;;;;1.70;1.02;;;31.70;99.90;;;;;;5029777;28;20579;-81
2022/08/14 11:43:41;;;;;;;1.60;1.50;;;30.50;99.90;;;;;;5031832;28;20182;-81
2022/08/14 11:46:11;;;;;;;1.30;1.20;;;30.70;99.90;;;;;;5033042;28;20209;-81
2022/08/14 11:48:48;;;;;;;0.70;0.70;;;31.00;99.90;;;;;;5028798;28;20198;-81
2022/08/14 11:51:23;;;;;;;1.30;1.20;;;31.60;99.90;;;;;;5028244;28;20193;-80
2022/08/14 11:53:52;;;;;;;1.35;1.05;;;32.10;99.90;;;;;;5022232;28;20217;-79
2022/08/14 11:56:18;;;;;;;1.05;1.02;;;32.50;99.90;;;;;;5028707;28;20202;-79
2022/08/14 11:58:50;;;;;;;1.73;1.58;;;32.60;99.90;;;;;;5034883;28;20558;-80
2022/08/14 12:01:15;;;;;;;2.10;1.65;;;32.30;99.90;;;;;;5029561;28;20269;-81
2022/08/14 12:03:44;;;;;;;0.75;0.75;;;31.40;99.90;;;;;;5032603;28;20277;-80
2022/08/14 12:06:15;;;;;;;0.90;0.82;;;31.90;99.90;;;;;;5036694;28;20241;-81
2022/08/14 12:08:42;;;;;;;0.88;0.88;;;31.90;99.90;;;;;;5031847;28;20295;-81
2022/08/14 12:11:10;;;;;;;1.50;1.40;;;31.40;99.90;;;;;;5029170;28;20206;-80
2022/08/14 12:13:36;;;;;;;0.82;0.82;;;30.20;99.90;;;;;;5029956;28;20794;-81
2022/08/14 12:16:06;;;;;;;2.00;1.48;;;30.90;99.90;;;;;;5037547;28;20305;-80
2022/08/14 12:18:37;;;;;;;1.45;1.08;;;31.60;99.90;;;;;;5031890;28;20179;-81
2022/08/14 12:21:14;;;;;;;1.15;1.05;;;32.20;99.90;;;;;;5025071;28;20281;-80
2022/08/14 12:23:40;;;;;;;2.47;1.10;;;32.60;99.90;;;;;;5031882;28;20196;-81
2022/08/14 12:26:07;;;;;;;1.35;1.25;;;32.90;99.90;;;;;;5030229;28;20286;-80
2022/08/14 12:28:33;;;;;;;0.98;0.98;;;33.10;99.90;;;;;;5031147;28;20281;-80
2022/08/14 12:31:10;;;;;;;1.70;1.02;;;33.30;99.90;;;;;;5037226;28;20181;-80
2022/08/14 12:33:35;;;;;;;0.93;0.80;;;33.30;99.90;;;;;;5028151;28;20218;-81
2022/08/14 12:36:06;;;;;;;1.83;1.42;;;33.50;99.80;;;;;;5033987;28;20288;-81
2022/08/14 12:38:40;;;;;;;3.15;1.40;;;33.60;99.90;;;;;;5028571;28;20182;-80
2022/08/14 12:41:17;;;;;;;1.75;1.17;;;33.30;99.70;;;;;;5023880;28;22129;-80
2022/08/14 12:43:56;;;;;;;1.73;1.40;;;33.30;99.80;;;;;;5030678;28;20189;-81
2022/08/14 12:46:26;;;;;;;1.52;1.15;;;32.50;99.30;;;;;;5029441;28;20287;-81
2022/08/14 12:48:52;;;;;;;1.50;1.40;;;32.00;99.90;;;;;;5030623;28;20206;-81
2022/08/14 12:51:20;;;;;;;2.28;1.88;;;32.00;98.90;;;;;;5036065;28;20179;-81
2022/08/14 12:53:46;;;;;;;2.45;1.35;;;31.50;99.50;;;;;;5028748;28;20221;-81
2022/08/14 12:56:17;;;;;;;1.75;1.30;;;31.90;99.90;;;;;;5027963;28;20206;-81
2022/08/14 12:58:50;;;;;;;1.77;1.42;;;32.20;99.60;;;;;;5030874;28;20187;-81
2022/08/14 13:01:21;;;;;;;1.77;1.40;;;32.30;99.90;;;;;;5027460;28;20564;-81
2022/08/14 13:03:47;;;;;;;1.50;1.40;;;32.20;99.90;;;;;;5030202;28;20182;-81
2022/08/14 13:06:13;;;;;;;1.58;1.48;;;32.60;99.30;;;;;;5026941;28;20206;-81
2022/08/14 13:08:41;;;;;;;1.15;0.80;;;33.10;99.00;;;;;;5029779;28;20212;-81
2022/08/14 13:11:13;;;;;;;1.10;0.95;;;33.60;98.90;;;;;;5034453;28;20188;-80